Terminal Aerodrome Forecast
Issued by NWS

Home | Current Version | Previous Version | Text Only | Print | Product List | Glossary On
Versions: 1 2 3 4 5 6 7 8 9 10 11 12 13 14 15 16 17 18 19 20 21 22 23 24 25 26 27 28 29 30 31 32 33 34 35 36 37 38 39 40 41 42 43 44 45 46 47 48 49 50
000
FTUS41 KCTP 281721
TAFJST
TAF
KJST 281721Z 2818/2918 30010KT 2SM -SHRASN BR OVC002
      TEMPO 2818/2820 1/2SM -SHRASN FG
     FM282000 30008KT 3SM BR VCSH OVC004
     FM282200 29008KT 5SM BR VCSH OVC009
     FM290300 30007KT 6SM BR OVC012
     FM290900 31006KT 3SM BR OVC007
     FM291400 27005KT P6SM BKN015=

USA.gov is the U.S. government's official web portal to all federal, state and local government web resources and services.